Time;durP1;ratioP1;P1;durP2;ratioP2;P2;SDS_P1;SDS_P2;PMS_P1;PMS_P2;Temp;Humidity;BMP_temperature;BMP_pressure;BME280_temperature;BME280_humidity;BME280_pressure;Samples;Min_cycle;Max_cycle;Signal;HPM_P1;HPM_P2
2022/07/24 00:02:31;;;;;;;9.45;3.95;;;;;;;13.21;67.39;98536.13;10463183;28;20048;-75
2022/07/24 00:07:34;;;;;;;9.50;3.72;;;;;;;13.19;67.73;98545.81;10483322;28;20447;-75
2022/07/24 00:12:36;;;;;;;10.90;3.53;;;;;;;13.12;67.85;98519.75;10470453;28;20127;-75
2022/07/24 00:17:38;;;;;;;6.13;3.47;;;;;;;13.06;68.12;98499.78;10476994;28;20052;-75
2022/07/24 00:22:40;;;;;;;9.32;3.85;;;;;;;13.05;68.24;98511.22;10455895;28;20047;-75
2022/07/24 00:27:42;;;;;;;;;;;;;;;13.02;68.50;98503.41;10478795;28;20048;-75
2022/07/24 00:32:44;;;;;;;8.07;3.45;;;;;;;12.99;68.78;98503.50;10474223;28;19928;-75
2022/07/24 00:37:48;;;;;;;6.45;3.53;;;;;;;12.94;68.84;98495.78;10470484;28;20508;-75
2022/07/24 00:42:53;;;;;;;7.65;3.85;;;;;;;12.90;69.16;98487.09;10459293;28;20086;-75
2022/07/24 00:47:55;;;;;;;8.27;3.95;;;;;;;12.88;69.41;98482.78;10455820;28;20135;-75
2022/07/24 00:52:59;;;;;;;7.63;3.15;;;;;;;12.84;69.52;98465.41;10470440;28;20045;-75
2022/07/24 00:58:00;;;;;;;11.45;4.20;;;;;;;12.76;69.66;98455.16;10454101;28;20068;-75
2022/07/24 01:03:02;;;;;;;7.95;3.38;;;;;;;12.71;70.01;98439.50;10476775;28;20054;-75
2022/07/24 01:08:04;;;;;;;7.53;3.90;;;;;;;12.71;70.18;98446.53;10481207;28;20036;-75
2022/07/24 01:13:06;;;;;;;7.43;3.78;;;;;;;12.67;70.37;98435.25;10475603;28;20033;-75
2022/07/24 01:18:07;;;;;;;6.68;3.25;;;;;;;12.60;70.50;98423.22;10475467;28;20610;-75
2022/07/24 01:23:09;;;;;;;8.02;4.10;;;;;;;12.55;70.98;98407.59;10473425;28;20058;-75
2022/07/24 01:28:11;;;;;;;14.00;5.07;;;;;;;-147.53;100.00;57128.34;10469994;28;20132;-76
2022/07/24 01:33:13;;;;;;;8.75;4.38;;;;;;;12.51;70.93;98403.31;10459214;28;20071;-75
2022/07/24 01:38:15;;;;;;;8.43;4.03;;;;;;;12.46;71.38;98397.38;10470100;28;20510;-75
2022/07/24 01:43:16;;;;;;;8.35;4.32;;;;;;;12.49;71.47;98404.28;10465598;28;20123;-75
2022/07/24 01:48:18;;;;;;;10.98;4.88;;;;;;;12.46;71.81;98402.63;10475380;28;20639;-75
2022/07/24 01:53:20;;;;;;;8.25;4.15;;;;;;;12.42;71.91;98402.75;10471809;28;20745;-75
2022/07/24 01:58:22;;;;;;;10.10;4.63;;;;;;;12.38;71.97;98397.59;10478010;28;20040;-74
2022/07/24 02:03:24;;;;;;;10.52;4.60;;;;;;;12.38;72.15;98394.09;10479546;28;20041;-75
2022/07/24 02:08:26;;;;;;;9.65;4.10;;;;;;;12.35;72.37;98391.53;10474231;28;20040;-76
2022/07/24 02:13:28;;;;;;;9.77;4.30;;;;;;;12.33;72.75;98388.13;10471939;28;20041;-74
2022/07/24 02:18:30;;;;;;;11.52;4.70;;;;;;;12.33;72.88;98403.88;10482228;28;20059;-74
2022/07/24 02:23:32;;;;;;;8.70;4.13;;;;;;;12.32;72.97;98402.13;10477332;28;20509;-76
2022/07/24 02:28:34;;;;;;;9.63;4.25;;;;;;;12.33;73.18;98414.34;10476503;28;20102;-76
2022/07/24 02:33:35;;;;;;;10.68;4.95;;;;;;;12.30;73.31;98410.06;10476398;28;20076;-75
2022/07/24 02:38:37;;;;;;;7.60;3.88;;;;;;;12.27;73.49;98402.25;10485406;28;20171;-75
2022/07/24 02:43:39;;;;;;;9.23;4.13;;;;;;;12.25;73.83;98395.34;10482214;28;20191;-75
2022/07/24 02:48:40;;;;;;;8.52;4.70;;;;;;;12.23;73.96;98403.25;10480813;28;20127;-75
2022/07/24 02:53:42;;;;;;;10.27;4.93;;;;;;;12.22;74.00;98400.66;10467166;28;20041;-75
2022/07/24 02:58:43;;;;;;;7.57;4.40;;;;;;;12.20;74.16;98395.47;10479601;28;20052;-75
2022/07/24 03:03:45;;;;;;;9.95;4.63;;;;;;;12.20;74.30;98419.97;10454522;28;20044;-76
2022/07/24 03:08:47;;;;;;;9.80;4.05;;;;;;;12.19;74.60;98407.72;10476134;28;20048;-75
2022/07/24 03:13:48;;;;;;;7.57;4.25;;;;;;;12.16;74.67;98401.69;10482143;28;20054;-75
2022/07/24 03:18:50;;;;;;;9.77;4.70;;;;;;;12.16;74.81;98412.19;10485579;28;20127;-74
2022/07/24 03:23:51;;;;;;;8.95;4.35;;;;;;;12.17;75.16;98420.03;10472772;28;20055;-74
2022/07/24 03:28:53;;;;;;;11.82;4.15;;;;;;;12.17;75.20;98424.41;10471374;28;20243;-75
2022/07/24 03:33:55;;;;;;;8.63;4.38;;;;;;;12.16;75.34;98436.66;10488087;28;20124;-74
2022/07/24 03:38:56;;;;;;;7.47;4.32;;;;;;;12.18;75.60;98447.13;10485498;28;20036;-75
2022/07/24 03:43:58;;;;;;;10.68;4.30;;;;;;;12.19;75.55;98446.22;10491793;28;20116;-75
2022/07/24 03:48:59;;;;;;;11.80;4.70;;;;;;;12.20;75.63;98472.44;10477633;28;20037;-75
2022/07/24 03:54:03;;;;;;;10.32;4.38;;;;;;;12.25;76.04;98482.78;10479001;28;20052;-75
2022/07/24 03:59:05;;;;;;;6.88;4.28;;;;;;;12.31;76.13;98522.00;10491817;28;20131;-75
2022/07/24 04:04:07;;;;;;;9.05;3.90;;;;;;;12.39;76.63;98553.28;10483244;28;20139;-75
2022/07/24 04:09:09;;;;;;;13.35;4.28;;;;;;;12.46;76.47;98594.22;10478062;28;20466;-75
2022/07/24 04:14:11;;;;;;;11.23;5.18;;;;;;;12.52;76.55;98630.81;10483386;28;20358;-74
2022/07/24 04:19:13;;;;;;;10.68;4.13;;;;;;;12.60;76.75;98659.47;10474046;28;20144;-75
2022/07/24 04:24:15;;;;;;;8.90;3.90;;;;;;;12.76;76.78;98725.63;10476860;28;20048;-75
2022/07/24 04:29:17;;;;;;;11.85;4.22;;;;;;;12.94;77.08;98796.97;10475492;28;20045;-74
2022/07/24 04:34:23;;;;;;;7.78;3.80;;;;;;;13.18;77.34;98904.13;10483291;28;20569;-75
2022/07/24 04:39:24;;;;;;;10.75;4.18;;;;;;;13.40;77.31;98998.25;10439617;28;20044;-75
2022/07/24 04:44:26;;;;;;;10.00;4.05;;;;;;;13.59;77.52;99080.22;10478530;28;20127;-74
2022/07/24 04:49:28;;;;;;;9.95;3.80;;;;;;;13.73;77.57;99143.88;10479416;28;20041;-75
2022/07/24 04:54:30;;;;;;;8.18;3.55;;;;;;;13.92;77.85;99222.44;10456177;28;20048;-75
2022/07/24 04:59:31;;;;;;;9.57;3.78;;;;;;;14.02;77.71;99276.59;10477354;28;20124;-75
2022/07/24 05:04:34;;;;;;;7.05;3.80;;;;;;;14.18;78.14;99342.94;10471132;28;20048;-75
2022/07/24 05:09:35;;;;;;;8.20;3.38;;;;;;;14.30;78.23;99397.94;10476433;28;20790;-75
2022/07/24 05:14:37;;;;;;;11.18;3.40;;;;;;;14.44;78.20;99454.75;10482103;28;20044;-75
2022/07/24 05:19:39;;;;;;;8.30;3.50;;;;;;;14.60;78.44;99522.03;10455795;28;20047;-74
2022/07/24 05:24:40;;;;;;;6.35;3.50;;;;;;;-147.53;100.00;57128.34;10455860;28;20054;-75
2022/07/24 05:29:42;;;;;;;5.97;3.40;;;;;;;-147.53;100.00;57128.34;10479951;28;20531;-76
2022/07/24 05:34:44;;;;;;;7.68;3.35;;;;;;;15.17;78.54;99767.88;10450461;28;20056;-74
2022/07/24 05:39:45;;;;;;;8.90;3.90;;;;;;;15.27;78.66;99814.28;10462022;28;20079;-74
2022/07/24 05:44:47;;;;;;;6.65;3.30;;;;;;;15.38;78.85;99859.78;10459063;28;20058;-75
2022/07/24 05:49:48;;;;;;;7.05;3.15;;;;;;;15.54;78.96;99922.84;10485749;28;20037;-74
2022/07/24 05:54:50;;;;;;;5.22;2.95;;;;;;;15.63;78.74;99958.78;10479242;28;20045;-74
2022/07/24 05:59:51;;;;;;;5.95;3.38;;;;;;;15.82;78.99;100049.06;10478322;28;20037;-75
2022/07/24 06:04:53;;;;;;;10.40;3.45;;;;;;;16.04;79.13;100134.97;10479652;28;20131;-74
2022/07/24 06:09:54;;;;;;;8.80;3.20;;;;;;;16.27;79.14;100236.72;10480636;28;20131;-75
2022/07/24 06:14:56;;;;;;;6.45;3.20;;;;;;;16.45;79.01;100314.84;10477278;28;20068;-75
2022/07/24 06:19:57;;;;;;;7.22;2.92;;;;;;;16.66;78.99;100402.66;10482882;28;20043;-74
2022/07/24 06:24:59;;;;;;;7.25;3.45;;;;;;;16.91;79.16;100501.06;10477528;28;20043;-75
2022/07/24 06:30:01;;;;;;;6.80;2.70;;;;;;;17.22;79.33;100638.19;10486273;28;20044;-75
2022/07/24 06:35:03;;;;;;;6.22;3.15;;;;;;;17.62;79.02;100804.47;10483246;28;20043;-75
2022/07/24 06:40:05;;;;;;;6.55;3.03;;;;;;;18.08;78.88;100999.13;10461242;28;20491;-75
2022/07/24 06:45:07;;;;;;;6.47;3.20;;;;;;;18.44;79.01;101140.13;10490655;28;20409;-74
2022/07/24 06:50:11;;;;;;;7.15;3.00;;;;;;;18.75;78.87;101256.47;10479261;28;20131;-75
2022/07/24 06:55:12;;;;;;;6.05;2.75;;;;;;;19.35;79.08;101530.28;10478539;28;20123;-74
2022/07/24 07:00:14;;;;;;;7.00;3.10;;;;;;;19.91;78.92;101761.91;10478609;28;20444;-73
2022/07/24 07:05:16;;;;;;;13.40;2.65;;;;;;;20.48;78.71;101994.72;10479850;28;20434;-75
2022/07/24 07:10:17;;;;;;;5.90;2.47;;;;;;;21.22;78.34;102300.59;10453430;28;20472;-75
2022/07/24 07:15:19;;;;;;;6.30;2.45;;;;;;;21.76;78.41;102523.44;10477352;28;20119;-75
2022/07/24 07:20:20;;;;;;;11.27;2.45;;;;;;;22.22;78.25;102712.75;10478329;28;20037;-75
2022/07/24 07:25:22;;;;;;;5.43;2.80;;;;;;;22.51;77.89;102819.47;10457513;28;20123;-75
2022/07/24 07:30:24;;;;;;;5.22;2.63;;;;;;;23.16;77.15;103083.03;10478992;28;20051;-75
2022/07/24 07:35:25;;;;;;;4.75;2.38;;;;;;;23.38;76.84;103157.00;10477019;28;20066;-75
2022/07/24 07:40:28;;;;;;;6.45;2.53;;;;;;;23.87;76.41;103337.16;10471292;28;20041;-74
2022/07/24 07:45:30;;;;;;;7.82;2.63;;;;;;;23.94;75.86;103342.53;10429255;28;20513;-75
2022/07/24 07:50:32;;;;;;;6.30;3.08;;;;;;;24.25;75.18;103452.31;10473327;28;20036;-75
2022/07/24 07:55:34;;;;;;;6.97;2.97;;;;;;;24.63;74.59;103588.09;10474869;28;20044;-74
2022/07/24 08:00:36;;;;;;;6.40;2.80;;;;;;;24.79;74.14;103626.56;10472810;28;20039;-75
2022/07/24 08:05:37;;;;;;;8.38;2.95;;;;;;;25.04;73.57;103709.69;10471669;28;20453;-75
2022/07/24 08:10:39;;;;;;;8.05;2.60;;;;;;;25.38;72.60;103830.47;10474554;28;20047;-75
2022/07/24 08:15:41;;;;;;;4.88;2.38;;;;;;;25.89;71.95;104030.09;10475502;28;20620;-75
2022/07/24 08:20:44;;;;;;;6.88;2.58;;;;;;;26.25;71.17;104141.25;10472084;28;20492;-75
2022/07/24 08:25:45;;;;;;;4.95;2.85;;;;;;;26.51;70.49;104221.03;10475563;28;20068;-75
2022/07/24 08:30:47;;;;;;;8.55;3.25;;;;;;;26.83;69.93;104313.47;10456742;28;20052;-75
2022/07/24 08:35:49;;;;;;;5.55;3.25;;;;;;;27.17;69.44;104423.00;10456271;28;20163;-74
2022/07/24 08:40:50;;;;;;;8.32;4.10;;;;;;;27.40;68.58;104472.44;10469808;28;20047;-75
2022/07/24 08:45:55;;;;;;;9.05;3.38;;;;;;;27.17;67.53;104331.56;10474392;28;20058;-75
2022/07/24 08:50:58;;;;;;;7.75;3.28;;;;;;;27.25;66.97;104323.50;10472678;28;20119;-76
2022/07/24 08:55:59;;;;;;;6.35;3.47;;;;;;;27.26;66.40;104279.56;10475172;28;20050;-75
2022/07/24 09:01:01;;;;;;;7.25;3.50;;;;;;;27.43;65.27;104300.22;10475726;28;20074;-75
2022/07/24 09:06:08;;;;;;;9.75;3.67;;;;;;;27.26;64.65;104195.25;10480775;28;20075;-76
2022/07/24 09:11:09;;;;;;;8.68;3.55;;;;;;;27.20;64.03;104134.28;10466203;28;20045;-75
2022/07/24 09:16:22;;;;;;;5.30;3.22;;;;;;;27.88;63.23;104395.41;10470222;28;20421;-75
2022/07/24 09:21:24;;;;;;;8.45;3.08;;;;;;;27.72;62.80;104277.84;10485682;28;20052;-75
2022/07/24 09:26:42;;;;;;;8.25;3.55;;;;;;;28.34;62.00;104508.59;10474247;28;20036;-74
2022/07/24 09:32:01;;;;;;;9.18;3.55;;;;;;;28.30;61.61;104438.53;10478388;28;20040;-75
2022/07/24 09:37:07;;;;;;;6.15;3.03;;;;;;;28.58;60.76;104525.69;10474410;28;20521;-74
2022/07/24 09:42:09;;;;;;;8.18;3.50;;;;;;;28.50;60.18;104449.31;10468438;28;20052;-74
2022/07/24 09:47:12;;;;;;;7.47;3.97;;;;;;;28.74;59.81;104513.13;10472944;28;20083;-74
2022/07/24 09:52:15;;;;;;;7.43;3.67;;;;;;;28.59;59.11;104414.25;10469629;28;20115;-74
2022/07/24 09:57:28;;;;;;;9.40;3.85;;;;;;;28.92;58.66;104512.22;10482866;28;20071;-74
2022/07/24 10:02:32;;;;;;;8.85;4.18;;;;;;;28.90;58.06;104470.88;10450833;28;20044;-74
2022/07/24 10:07:35;;;;;;;9.57;3.88;;;;;;;28.99;57.60;104478.94;10472109;28;20524;-74
2022/07/24 10:12:37;;;;;;;13.40;7.35;;;;;;;29.24;57.08;104543.63;10477984;28;20136;-76
2022/07/24 10:18:12;;;;;;;10.40;4.93;;;;;;;29.21;56.80;104495.97;10466540;28;20045;-74
2022/07/24 10:23:24;;;;;;;7.65;3.92;;;;;;;29.24;56.60;104468.97;10464703;28;20131;-75
2022/07/24 10:28:37;;;;;;;7.68;3.85;;;;;;;29.39;56.17;104497.69;10464921;28;20132;-74
2022/07/24 10:33:41;;;;;;;7.22;3.97;;;;;;;29.14;55.47;104347.56;10471053;28;20045;-74
2022/07/24 10:38:52;;;;;;;8.07;3.90;;;;;;;29.24;54.79;104363.72;10461092;28;20052;-75
2022/07/24 10:44:14;;;;;;;7.90;4.00;;;;;;;29.40;54.68;104394.22;10474345;28;20516;-74
2022/07/24 10:49:38;;;;;;;15.40;4.63;;;;;;;29.28;54.36;104326.84;10478777;28;20060;-74
2022/07/24 10:54:43;;;;;;;7.30;4.07;;;;;;;29.31;54.06;104293.53;10475185;28;20052;-75
2022/07/24 10:59:45;;;;;;;13.63;3.85;;;;;;;29.07;53.68;104172.25;10463266;28;20638;-75
2022/07/24 11:04:46;;;;;;;8.95;4.03;;;;;;;28.93;53.15;104085.16;10473236;28;20450;-75
2022/07/24 11:09:56;;;;;;;7.57;3.45;;;;;;;28.94;52.76;104062.66;10482050;28;20132;-75
2022/07/24 11:15:53;;;;;;;12.77;4.07;;;;;;;29.22;52.56;104148.78;10454812;28;21012;-75
2022/07/24 11:20:22;;;;;;;7.50;3.53;;;;;;;29.34;52.36;104182.88;10474731;28;20041;-74
2022/07/24 11:25:28;;;;;;;5.93;3.10;;;;;;;29.71;51.84;104309.41;10483958;28;20048;-74
2022/07/24 11:30:30;;;;;;;9.07;3.38;;;;;;;29.79;51.61;104324.63;10477069;28;20531;-75
2022/07/24 11:35:34;;;;;;;7.30;3.00;;;;;;;30.02;51.25;104374.00;10474532;28;20124;-73
2022/07/24 11:40:36;;;;;;;8.05;2.80;;;;;;;29.59;50.96;104157.41;10487262;28;20159;-72
2022/07/24 11:45:39;;;;;;;7.70;2.95;;;;;;;29.32;50.51;104020.03;10466817;28;20068;-73
2022/07/24 11:50:41;;;;;;;5.40;2.50;;;;;;;29.62;50.20;104116.88;10475796;28;20040;-73
2022/07/24 11:55:42;;;;;;;6.70;3.08;;;;;;;29.89;49.86;104201.25;10473725;28;20048;-74
2022/07/24 12:00:44;;;;;;;5.82;2.88;;;;;;;29.93;49.56;104191.28;10482399;28;20044;-73
2022/07/24 12:05:45;;;;;;;3.97;2.28;;;;;;;29.44;48.75;103966.81;10469105;28;20167;-73
2022/07/24 12:10:49;;;;;;;4.50;2.33;;;;;;;29.46;48.59;103949.72;10483764;28;20516;-73
2022/07/24 12:15:51;;;;;;;5.35;2.50;;;;;;;29.79;47.80;104051.88;10482123;28;20132;-72
2022/07/24 12:20:59;;;;;;;5.90;2.58;;;;;;;30.06;48.02;104138.91;10458451;28;20040;-73
2022/07/24 12:26:01;;;;;;;;;;;;;;;29.86;47.74;104024.81;10481237;28;20127;-73
2022/07/24 12:31:08;;;;;;;5.10;2.50;;;;;;;30.05;47.39;104063.28;10468181;28;20007;-73
2022/07/24 12:36:11;;;;;;;6.30;2.33;;;;;;;29.80;47.02;103951.03;10472176;28;20044;-72
2022/07/24 12:41:16;;;;;;;6.70;2.70;;;;;;;30.00;46.86;104003.03;10477698;28;20425;-75
2022/07/24 12:46:20;;;;;;;4.88;2.15;;;;;;;29.78;46.68;103897.97;10477230;28;20131;-75
2022/07/24 12:51:22;;;;;;;4.82;2.42;;;;;;;29.89;46.37;103914.03;10468087;28;20825;-75
2022/07/24 12:56:23;;;;;;;5.05;2.63;;;;;;;29.92;46.29;103906.78;10477488;28;20048;-76
2022/07/24 13:01:47;;;;;;;5.13;2.50;;;;;;;30.37;45.89;104067.31;10477147;28;20045;-76
2022/07/24 13:06:51;;;;;;;4.47;2.08;;;;;;;29.87;45.76;103837.53;10455308;28;20620;-75
2022/07/24 13:11:54;;;;;;;4.63;2.25;;;;;;;29.51;45.51;103672.53;10479786;28;20635;-75
2022/07/24 13:17:02;;;;;;;4.20;2.20;;;;;;;29.52;45.40;103655.41;10478336;28;20048;-75
2022/07/24 13:22:04;;;;;;;4.22;2.33;;;;;;;28.92;45.13;103401.06;10472413;28;20042;-75
2022/07/24 13:27:07;;;;;;;4.93;2.10;;;;;;;28.99;44.97;103427.00;10472800;28;20087;-75
2022/07/24 13:32:09;;;;;;;5.38;2.33;;;;;;;29.64;44.85;103673.22;10468224;28;20599;-76
2022/07/24 13:37:11;;;;;;;4.35;2.40;;;;;;;29.89;44.94;103757.38;10483181;28;20040;-74
2022/07/24 13:42:14;;;;;;;4.57;2.60;;;;;;;29.44;44.74;103567.38;10476951;28;20118;-75
2022/07/24 13:47:16;;;;;;;3.50;2.20;;;;;;;29.62;44.79;103619.25;10462390;28;20131;-75
2022/07/24 13:52:17;;;;;;;5.68;2.60;;;;;;;29.74;44.57;103656.81;10480772;28;20442;-75
2022/07/24 13:57:19;;;;;;;6.63;2.55;;;;;;;29.92;44.81;103714.09;10479612;28;20051;-74
2022/07/24 14:02:21;;;;;;;4.78;2.42;;;;;;;30.24;44.71;103828.81;10476468;28;20435;-75
2022/07/24 14:07:22;;;;;;;5.28;2.50;;;;;;;30.23;44.58;103811.69;10480347;28;20049;-74
2022/07/24 14:12:24;;;;;;;5.50;2.45;;;;;;;30.05;44.45;103712.94;10481379;28;20132;-75
2022/07/24 14:17:26;;;;;;;4.45;2.42;;;;;;;30.23;44.27;103778.38;10479055;28;20131;-74
2022/07/24 14:22:28;;;;;;;7.43;2.50;;;;;;;30.17;44.19;103729.84;10475213;28;20040;-74
2022/07/24 14:27:29;;;;;;;4.68;2.47;;;;;;;30.17;44.08;103714.53;10439032;28;20037;-74
2022/07/24 14:32:33;;;;;;;5.82;2.33;;;;;;;30.08;44.14;103666.97;10449713;28;20127;-75
2022/07/24 14:37:36;;;;;;;4.43;2.28;;;;;;;30.38;43.92;103772.66;10455451;28;20131;-74
2022/07/24 14:42:38;;;;;;;5.07;2.05;;;;;;;30.47;43.78;103794.13;10462978;28;20907;-74
2022/07/24 14:47:40;;;;;;;6.78;2.35;;;;;;;30.59;43.90;103824.56;10445050;28;20048;-76
2022/07/24 14:52:41;;;;;;;8.93;2.35;;;;;;;30.21;43.62;103650.53;10454396;28;20136;-76
2022/07/24 14:57:43;;;;;;;4.05;2.38;;;;;;;30.48;43.75;103751.78;10467966;28;20051;-76
2022/07/24 15:02:45;;;;;;;3.58;2.30;;;;;;;30.27;43.92;103647.69;10472092;28;20041;-76
2022/07/24 15:07:46;;;;;;;5.10;2.38;;;;;;;30.23;43.94;103624.34;10458626;28;20140;-76
2022/07/24 15:12:48;;;;;;;6.53;2.42;;;;;;;30.44;43.67;103690.59;10474027;28;20044;-75
2022/07/24 15:17:49;;;;;;;5.03;2.30;;;;;;;30.64;43.59;103764.06;10491087;28;20486;-75
2022/07/24 15:22:51;;;;;;;5.07;2.80;;;;;;;30.70;43.43;103765.72;10491805;28;20131;-74
2022/07/24 15:27:52;;;;;;;4.68;2.47;;;;;;;30.18;43.56;103550.63;10466433;28;20135;-76
2022/07/24 15:32:54;;;;;;;5.95;2.42;;;;;;;30.56;43.47;103689.44;10472961;28;20075;-76
2022/07/24 15:37:56;;;;;;;7.95;2.33;;;;;;;30.87;43.47;103796.91;10495601;28;20626;-74
2022/07/24 15:42:58;;;;;;;10.25;3.13;;;;;;;30.68;43.32;103713.50;10479179;28;20338;-75
2022/07/24 15:48:00;;;;;;;8.27;2.80;;;;;;;30.78;43.33;103736.72;10495975;28;20064;-75
2022/07/24 15:53:01;;;;;;;7.03;2.80;;;;;;;30.77;43.43;103717.81;10472373;28;20036;-73
2022/07/24 15:58:03;;;;;;;5.43;2.50;;;;;;;30.80;43.36;103713.22;10484450;28;20128;-73
2022/07/24 16:03:05;;;;;;;8.38;2.67;;;;;;;30.73;43.45;103668.31;10490923;28;20748;-74
2022/07/24 16:08:07;;;;;;;5.57;2.40;;;;;;;30.62;43.32;103619.88;10480137;28;20052;-75
2022/07/24 16:13:08;;;;;;;5.10;2.25;;;;;;;30.81;43.26;103674.44;10487222;28;20516;-74
2022/07/24 16:18:10;;;;;;;5.65;2.58;;;;;;;30.59;43.27;103575.81;10464552;28;20075;-74
2022/07/24 16:23:16;;;;;;;5.38;2.08;;;;;;;30.65;43.45;103586.47;10492369;28;20044;-72
2022/07/24 16:28:18;;;;;;;5.30;2.63;;;;;;;30.70;43.14;103597.19;10490027;28;20103;-75
2022/07/24 16:33:19;;;;;;;6.03;2.47;;;;;;;30.77;43.10;103626.75;10477635;28;20585;-75
2022/07/24 16:38:41;;;;;;;11.85;2.80;;;;;;;30.79;43.08;103611.38;10487922;28;20044;-73
2022/07/24 16:43:43;;;;;;;11.15;2.72;;;;;;;31.00;43.42;103691.16;10502984;28;20063;-75
2022/07/24 16:48:44;;;;;;;7.57;2.65;;;;;;;30.89;42.91;103616.56;10494125;28;20052;-74
2022/07/24 16:53:46;;;;;;;6.65;2.35;;;;;;;30.61;43.19;103490.13;10486887;28;20055;-75
2022/07/24 16:58:47;;;;;;;3.22;2.00;;;;;;;30.62;43.11;103492.81;10501359;28;20044;-75
2022/07/24 17:03:49;;;;;;;4.40;2.20;;;;;;;30.49;43.21;103423.75;10502687;28;20444;-75
2022/07/24 17:08:50;;;;;;;3.25;1.90;;;;;;;30.56;43.08;103446.13;10475822;28;20040;-75
2022/07/24 17:13:52;;;;;;;4.78;2.20;;;;;;;30.89;42.85;103570.59;10487995;28;20779;-75
2022/07/24 17:18:54;;;;;;;4.22;2.00;;;;;;;30.85;43.25;103540.91;10490091;28;20470;-74
2022/07/24 17:23:56;;;;;;;6.03;2.20;;;;;;;30.98;43.03;103584.78;10501577;28;20040;-74
2022/07/24 17:28:59;;;;;;;4.82;2.33;;;;;;;30.62;43.20;103421.63;10463359;28;20058;-74
2022/07/24 17:34:00;;;;;;;5.00;2.35;;;;;;;30.27;42.79;103266.66;10473544;28;20523;-74
2022/07/24 17:39:03;;;;;;;4.85;1.90;;;;;;;30.15;43.39;103219.25;10491703;28;20060;-73
2022/07/24 17:44:04;;;;;;;5.28;2.13;;;;;;;30.08;43.17;103179.81;10478856;28;20061;-75
2022/07/24 17:49:06;;;;;;;4.03;2.08;;;;;;;29.75;43.06;103056.47;10488157;28;20410;-74
2022/07/24 17:54:08;;;;;;;5.25;2.47;;;;;;;29.47;43.25;102931.31;10485330;28;20064;-75
2022/07/24 17:59:10;;;;;;;5.53;2.55;;;;;;;29.04;43.56;102764.38;10478797;28;20041;-75
2022/07/24 18:04:11;;;;;;;4.32;2.42;;;;;;;28.83;43.42;102685.00;10488530;28;20056;-74
2022/07/24 18:09:13;;;;;;;8.60;2.47;;;;;;;28.57;43.38;102592.31;10482202;28;20123;-75
2022/07/24 18:14:16;;;;;;;10.20;2.90;;;;;;;28.39;43.71;102517.47;10491398;28;20043;-74
2022/07/24 18:19:17;;;;;;;6.95;3.00;;;;;;;28.18;44.15;102441.78;10477263;28;20067;-73
2022/07/24 18:24:20;;;;;;;8.63;2.40;;;;;;;27.99;44.01;102375.97;10482583;28;20414;-74
2022/07/24 18:29:22;;;;;;;5.40;2.42;;;;;;;27.89;44.58;102340.31;10482093;28;20044;-74
2022/07/24 18:34:24;;;;;;;4.50;2.50;;;;;;;27.75;44.36;102292.31;10477850;28;20092;-74
2022/07/24 18:39:26;;;;;;;4.65;2.55;;;;;;;27.62;45.05;102254.19;10484195;28;20053;-75
2022/07/24 18:44:28;;;;;;;4.93;2.42;;;;;;;27.54;44.83;102226.63;10482160;28;20124;-74
2022/07/24 18:49:30;;;;;;;4.75;2.60;;;;;;;27.36;45.42;102150.09;10477671;28;20040;-74
2022/07/24 18:54:31;;;;;;;6.53;2.88;;;;;;;27.18;45.42;102089.69;10480464;28;20094;-75
2022/07/24 18:59:33;;;;;;;5.40;2.70;;;;;;;27.07;45.84;102059.56;10485036;28;20538;-74
2022/07/24 19:04:36;;;;;;;5.25;2.47;;;;;;;26.97;46.06;102030.31;10469585;28;20036;-74
2022/07/24 19:09:38;;;;;;;4.85;2.60;;;;;;;26.79;46.32;101969.09;10494303;28;20076;-74
2022/07/24 19:14:39;;;;;;;7.30;2.90;;;;;;;26.60;46.42;101902.53;10482203;28;20045;-74
2022/07/24 19:19:41;;;;;;;9.68;2.63;;;;;;;26.40;46.76;101832.47;10465847;28;20135;-73
2022/07/24 19:24:42;;;;;;;4.55;2.80;;;;;;;26.15;47.31;101752.72;10470383;28;20054;-73
2022/07/24 19:30:01;;;;;;;8.60;2.80;;;;;;;25.88;47.51;101657.88;10473014;28;20131;-74
2022/07/24 19:35:03;;;;;;;6.25;3.47;;;;;;;25.66;47.60;101582.66;10470366;28;20055;-73
2022/07/24 19:40:06;;;;;;;7.07;3.13;;;;;;;25.43;48.47;101500.28;10480560;28;20048;-74
2022/07/24 19:45:08;;;;;;;8.65;3.40;;;;;;;25.27;48.65;101452.53;10494612;28;20128;-75
2022/07/24 19:50:09;;;;;;;8.05;3.30;;;;;;;25.12;49.18;101412.88;10506978;28;20103;-73
2022/07/24 19:55:13;;;;;;;5.70;3.03;;;;;;;24.93;49.37;101354.53;10495112;28;20235;-74
2022/07/24 20:00:15;;;;;;;6.30;3.22;;;;;;;24.75;49.92;101294.44;10500793;28;20087;-74
2022/07/24 20:05:16;;;;;;;9.07;3.50;;;;;;;24.59;50.16;101250.38;10490856;28;20151;-74
2022/07/24 20:10:18;;;;;;;7.38;3.53;;;;;;;24.41;50.77;101198.31;10494602;28;20048;-74
2022/07/24 20:15:19;;;;;;;6.65;3.60;;;;;;;24.29;51.25;101167.50;10493814;28;20047;-73
2022/07/24 20:20:21;;;;;;;7.70;3.85;;;;;;;24.17;51.50;101134.03;10486419;28;20127;-74
2022/07/24 20:25:23;;;;;;;6.22;3.70;;;;;;;24.02;51.80;101092.66;10488329;28;20078;-74
2022/07/24 20:30:25;;;;;;;6.53;3.40;;;;;;;23.98;52.30;101091.00;10496980;28;20123;-74
2022/07/24 20:35:27;;;;;;;6.40;3.95;;;;;;;23.90;52.61;101074.31;10475148;28;20036;-75
2022/07/24 20:40:29;;;;;;;7.90;3.67;;;;;;;23.81;52.90;101048.75;10486406;28;20056;-74
2022/07/24 20:45:35;;;;;;;7.85;4.05;;;;;;;23.72;53.48;101033.91;10463981;28;20040;-74
2022/07/24 20:50:37;;;;;;;6.10;3.83;;;;;;;23.65;53.76;101014.50;10484407;28;20120;-74
2022/07/24 20:55:39;;;;;;;8.45;3.72;;;;;;;23.56;53.89;100990.75;10470937;28;20059;-74
2022/07/24 21:00:41;;;;;;;11.73;3.88;;;;;;;23.49;54.53;100975.84;10485075;28;20066;-74
2022/07/24 21:05:43;;;;;;;7.50;3.78;;;;;;;23.41;54.76;100949.41;10476307;28;20163;-74
2022/07/24 21:10:45;;;;;;;12.15;4.03;;;;;;;23.33;55.02;100938.13;10497564;28;20095;-73
2022/07/24 21:15:46;;;;;;;8.50;4.15;;;;;;;23.24;55.33;100912.59;10484363;28;20453;-74
2022/07/24 21:20:50;;;;;;;9.68;4.43;;;;;;;23.16;55.58;100881.72;10499627;28;20054;-74
2022/07/24 21:25:52;;;;;;;10.98;4.20;;;;;;;23.04;55.95;100859.78;10484972;28;20068;-74
2022/07/24 21:30:53;;;;;;;8.65;4.10;;;;;;;22.94;56.26;100832.53;10459495;28;20497;-73
2022/07/24 21:35:55;;;;;;;12.85;4.75;;;;;;;22.85;56.63;100806.16;10465030;28;20051;-74
2022/07/24 21:40:57;;;;;;;11.07;4.82;;;;;;;22.74;57.00;100769.16;10479198;28;20059;-74
2022/07/24 21:45:59;;;;;;;8.57;4.20;;;;;;;22.64;57.42;100743.69;10482246;28;20044;-73
2022/07/24 21:51:00;;;;;;;11.40;4.72;;;;;;;22.52;57.40;100702.28;10486166;28;20404;-73
2022/07/24 21:56:02;;;;;;;8.18;4.60;;;;;;;22.40;57.81;100660.91;10477361;28;20123;-73
2022/07/24 22:01:11;;;;;;;9.82;5.25;;;;;;;22.33;58.23;100643.34;10482026;28;20156;-73
2022/07/24 22:06:12;;;;;;;9.68;5.20;;;;;;;22.23;58.41;100623.22;10492309;28;20039;-74
2022/07/24 22:11:14;;;;;;;11.43;5.18;;;;;;;22.11;58.68;100580.97;10481418;28;20055;-73
2022/07/24 22:16:16;;;;;;;12.38;5.05;;;;;;;22.02;58.87;100551.06;10485821;28;20128;-74
2022/07/24 22:21:17;;;;;;;10.43;5.30;;;;;;;21.95;59.16;100533.53;10479196;28;20067;-74
2022/07/24 22:26:20;;;;;;;11.43;5.40;;;;;;;21.83;59.30;100496.63;10486491;28;20041;-74
2022/07/24 22:31:22;;;;;;;11.32;5.80;;;;;;;21.74;59.61;100481.81;10477291;28;20709;-74
2022/07/24 22:36:27;;;;;;;8.55;5.38;;;;;;;21.64;59.81;100441.28;10487055;28;20784;-74
2022/07/24 22:41:32;;;;;;;12.38;6.20;;;;;;;21.51;60.21;100400.00;10483451;28;20448;-74
2022/07/24 22:46:34;;;;;;;12.15;5.93;;;;;;;21.40;60.36;100370.19;10507635;28;20040;-73
2022/07/24 22:51:36;;;;;;;10.30;6.15;;;;;;;21.33;60.43;100338.47;10487475;28;20048;-74
2022/07/24 22:56:42;;;;;;;12.20;6.90;;;;;;;21.27;60.90;100330.69;10493622;28;20110;-75
2022/07/24 23:01:44;;;;;;;23.20;7.03;;;;;;;21.19;60.92;100309.63;10487147;28;20045;-74
2022/07/24 23:06:46;;;;;;;16.73;6.65;;;;;;;21.14;61.34;100300.09;10491532;28;20457;-74
2022/07/24 23:11:47;;;;;;;11.65;6.90;;;;;;;21.07;61.54;100279.91;10490398;28;20047;-74